createdAt,value
2022-09-27T00:00:58.115Z,17.96
2022-09-27T00:12:16.801Z,18.07
2022-09-27T00:13:48.349Z,18.11
2022-09-27T00:15:20.445Z,18.14
2022-09-27T00:16:52.052Z,18.16
2022-09-27T00:18:23.584Z,18.21
2022-09-27T00:19:58.015Z,18.23
2022-09-27T00:21:30.825Z,18.27
2022-09-27T00:23:02.479Z,18.25
2022-09-27T00:24:34.653Z,18.29
2022-09-27T00:26:06.408Z,18.31
2022-09-27T00:27:38.128Z,18.28
2022-09-27T00:29:10.800Z,18.31
2022-09-27T00:30:42.853Z,18.30
2022-09-27T00:32:14.723Z,18.27
2022-09-27T00:33:46.644Z,18.23
2022-09-27T00:35:18.222Z,18.21
2022-09-27T00:36:49.987Z,18.21
2022-09-27T00:38:21.625Z,18.20
2022-09-27T00:39:53.271Z,18.22
2022-09-27T00:41:26.025Z,18.28
2022-09-27T00:42:58.010Z,18.31
2022-09-27T00:44:29.844Z,18.34
2022-09-27T00:46:02.216Z,18.34
2022-09-27T00:47:57.336Z,18.28
2022-09-27T00:49:31.954Z,18.13
2022-09-27T00:51:04.234Z,18.08
2022-09-27T00:52:36.049Z,18.04
2022-09-27T00:54:07.788Z,17.99
2022-09-27T00:55:50.097Z,17.94
2022-09-27T00:57:21.773Z,17.95
2022-09-27T00:58:55.935Z,17.99
2022-09-27T01:00:27.537Z,18.01
2022-09-27T01:01:59.166Z,17.98
2022-09-27T01:03:53.724Z,17.96
2022-09-27T01:05:29.158Z,17.89
2022-09-27T01:07:00.960Z,17.87
2022-09-27T01:08:33.025Z,17.87
2022-09-27T01:10:05.081Z,17.85
2022-09-27T01:11:41.409Z,17.79
2022-09-27T01:13:24.016Z,17.73
2022-09-27T01:15:01.378Z,17.69
2022-09-27T01:16:33.086Z,17.67
2022-09-27T01:18:16.975Z,17.67
2022-09-27T01:19:52.006Z,17.67
2022-09-27T01:21:24.055Z,17.60
2022-09-27T01:22:55.845Z,17.55
2022-09-27T01:24:30.141Z,17.51
2022-09-27T01:26:05.381Z,17.53
2022-09-27T01:27:37.432Z,17.57
2022-09-27T01:29:23.679Z,17.63
2022-09-27T01:31:14.269Z,17.66
2022-09-27T01:32:52.100Z,17.66
2022-09-27T01:34:26.452Z,17.65
2022-09-27T01:36:22.011Z,17.66
2022-09-27T01:38:12.557Z,17.74
2022-09-27T01:39:56.827Z,17.74
2022-09-27T01:41:39.281Z,17.74
2022-09-27T01:43:17.286Z,17.75
2022-09-27T01:44:53.086Z,17.77
2022-09-27T01:46:45.022Z,17.78
2022-09-27T01:48:24.484Z,17.80
2022-09-27T01:49:56.128Z,17.82
2022-09-27T01:51:32.059Z,17.81
2022-09-27T01:53:04.624Z,17.83
2022-09-27T01:54:48.815Z,17.83
2022-09-27T01:56:33.761Z,17.85
2022-09-27T01:58:07.330Z,17.84
2022-09-27T01:59:43.665Z,17.87
2022-09-27T02:01:15.250Z,17.87
2022-09-27T02:02:50.998Z,17.93
2022-09-27T02:04:27.936Z,17.93
2022-09-27T02:06:01.788Z,17.91
2022-09-27T02:07:35.556Z,17.95
2022-09-27T02:09:16.340Z,17.97
2022-09-27T02:10:48.176Z,17.98
2022-09-27T02:12:24.157Z,17.95
2022-09-27T02:13:58.622Z,17.95
2022-09-27T02:15:30.384Z,17.92
2022-09-27T02:17:20.885Z,17.88
2022-09-27T02:18:52.394Z,17.82
2022-09-27T02:20:29.980Z,17.81
2022-09-27T02:22:10.728Z,17.78
2022-09-27T02:23:51.650Z,17.77
2022-09-27T02:25:32.772Z,17.75
2022-09-27T02:27:10.405Z,17.75
2022-09-27T02:28:50.121Z,17.76
2022-09-27T02:30:21.878Z,17.76
2022-09-27T02:31:53.498Z,17.73
2022-09-27T02:33:32.739Z,17.76
2022-09-27T02:35:09.446Z,17.71
2022-09-27T02:36:41.304Z,17.69
2022-09-27T02:38:13.179Z,17.69
2022-09-27T02:39:44.919Z,17.67
2022-09-27T02:41:16.957Z,17.65
2022-09-27T02:42:48.496Z,17.61
2022-09-27T02:44:22.772Z,17.61
2022-09-27T02:46:09.509Z,17.61
2022-09-27T02:48:04.831Z,17.58
2022-09-27T02:49:42.789Z,17.56
2022-09-27T02:51:17.376Z,17.54
2022-09-27T02:53:13.319Z,17.52
2022-09-27T02:54:47.245Z,17.50
2022-09-27T02:56:41.264Z,17.51
2022-09-27T02:58:17.467Z,17.50
2022-09-27T03:00:07.159Z,17.49
2022-09-27T03:02:00.251Z,17.46
2022-09-27T03:03:48.408Z,17.45
2022-09-27T03:05:25.661Z,17.44
2022-09-27T03:06:57.310Z,17.45
2022-09-27T03:08:28.947Z,17.45
2022-09-27T03:10:00.849Z,17.45
2022-09-27T03:11:33.739Z,17.43
2022-09-27T03:13:14.117Z,17.44
2022-09-27T03:14:45.782Z,17.42
2022-09-27T03:16:19.110Z,17.45
2022-09-27T03:17:50.841Z,17.47
2022-09-27T03:19:22.880Z,17.48
2022-09-27T03:20:54.957Z,17.53
2022-09-27T03:22:26.743Z,17.53
2022-09-27T03:23:58.415Z,17.57
2022-09-27T03:25:29.984Z,17.64
2022-09-27T03:27:01.730Z,17.62
2022-09-27T03:28:33.344Z,17.59
2022-09-27T03:30:06.388Z,17.56
2022-09-27T03:31:37.863Z,17.51
2022-09-27T03:33:09.602Z,17.49
2022-09-27T03:34:41.267Z,17.51
2022-09-27T03:36:13.488Z,17.56
2022-09-27T03:37:48.061Z,17.59
2022-09-27T03:39:19.601Z,17.63
2022-09-27T03:40:51.377Z,17.65
2022-09-27T03:42:23.062Z,17.68
2022-09-27T03:43:57.972Z,17.70
2022-09-27T03:45:31.986Z,17.70
2022-09-27T03:47:03.640Z,17.67
2022-09-27T03:48:35.280Z,17.68
2022-09-27T03:50:07.341Z,17.69
2022-09-27T03:51:44.991Z,17.71
2022-09-27T03:53:28.567Z,17.69
2022-09-27T03:55:02.383Z,17.63
2022-09-27T03:56:34.209Z,17.59
2022-09-27T03:58:07.194Z,17.58
2022-09-27T03:59:38.878Z,17.60
2022-09-27T04:01:12.263Z,17.60
2022-09-27T04:02:44.203Z,17.61
2022-09-27T04:04:16.016Z,17.55
2022-09-27T04:05:47.729Z,17.55
2022-09-27T04:07:19.716Z,17.51
2022-09-27T04:08:51.301Z,17.49
2022-09-27T04:10:22.849Z,17.45
2022-09-27T04:11:55.327Z,17.41
2022-09-27T04:13:26.996Z,17.42
2022-09-27T04:14:58.622Z,17.41
2022-09-27T04:16:30.285Z,17.43
2022-09-27T04:18:01.901Z,17.47
2022-09-27T04:19:33.664Z,17.47
2022-09-27T04:21:05.628Z,17.47
2022-09-27T04:22:44.325Z,17.51
2022-09-27T04:24:15.908Z,17.53
2022-09-27T04:25:47.808Z,17.52
2022-09-27T04:27:19.365Z,17.55
2022-09-27T04:28:54.461Z,17.55
2022-09-27T04:30:26.687Z,17.54
2022-09-27T04:31:58.389Z,17.54
2022-09-27T04:33:29.978Z,17.57
2022-09-27T04:35:20.468Z,17.61
2022-09-27T04:36:52.001Z,17.61
2022-09-27T04:38:24.315Z,17.57
2022-09-27T04:39:55.929Z,17.55
2022-09-27T04:41:28.436Z,17.55
2022-09-27T04:43:00.762Z,17.56
2022-09-27T04:44:32.464Z,17.56
2022-09-27T04:46:04.601Z,17.53
2022-09-27T04:47:36.240Z,17.50
2022-09-27T04:49:07.925Z,17.45
2022-09-27T04:50:40.510Z,17.40
2022-09-27T04:52:12.115Z,17.36
2022-09-27T04:53:44.681Z,17.25
2022-09-27T04:55:16.921Z,17.14
2022-09-27T04:56:49.071Z,17.10
2022-09-27T04:58:21.239Z,17.05
2022-09-27T04:59:53.097Z,16.96
2022-09-27T05:01:24.858Z,16.90
2022-09-27T05:02:56.688Z,16.92
2022-09-27T05:04:28.363Z,16.98
2022-09-27T05:06:00.987Z,17.05
2022-09-27T05:07:34.021Z,17.11
2022-09-27T05:09:05.839Z,17.15
2022-09-27T05:10:37.644Z,17.15
2022-09-27T05:12:09.518Z,17.12
2022-09-27T05:13:42.005Z,17.09
2022-09-27T05:15:13.734Z,17.03
2022-09-27T05:16:45.528Z,17.05
2022-09-27T05:18:18.231Z,17.02
2022-09-27T05:19:50.245Z,17.02
2022-09-27T05:21:21.832Z,17.07
2022-09-27T05:22:53.468Z,16.98
2022-09-27T05:24:25.036Z,17.01
2022-09-27T05:25:57.629Z,17.08
2022-09-27T05:27:31.318Z,17.12
2022-09-27T05:29:03.729Z,17.14
2022-09-27T05:30:37.012Z,17.10
2022-09-27T05:32:09.243Z,17.04
2022-09-27T05:33:41.072Z,17.06
2022-09-27T05:35:13.256Z,17.11
2022-09-27T05:36:44.774Z,17.15
2022-09-27T05:38:16.511Z,17.12
2022-09-27T05:39:48.916Z,17.11
2022-09-27T05:41:20.475Z,17.12
2022-09-27T05:42:53.042Z,17.16
2022-09-27T05:44:26.230Z,17.22
2022-09-27T05:45:58.999Z,17.29
2022-09-27T05:47:30.715Z,17.31
2022-09-27T05:49:02.329Z,17.32
2022-09-27T05:50:34.095Z,17.32
2022-09-27T05:52:06.074Z,17.34
2022-09-27T05:53:37.922Z,17.35
2022-09-27T05:55:09.425Z,17.33
2022-09-27T05:56:40.994Z,17.34
2022-09-27T05:58:16.521Z,17.38
2022-09-27T05:59:48.561Z,17.45
2022-09-27T06:01:20.376Z,17.49
2022-09-27T06:03:04.547Z,17.46
2022-09-27T06:04:36.473Z,17.42
2022-09-27T06:06:08.058Z,17.46
2022-09-27T06:07:40.982Z,17.49
2022-09-27T06:09:18.544Z,17.52
2022-09-27T06:10:50.185Z,17.54
2022-09-27T06:12:21.910Z,17.53
2022-09-27T06:13:53.789Z,17.53
2022-09-27T06:15:25.927Z,17.54
2022-09-27T06:16:58.403Z,17.53
2022-09-27T06:18:32.997Z,17.54
2022-09-27T06:20:05.007Z,17.55
2022-09-27T06:21:38.265Z,17.57
2022-09-27T06:23:10.926Z,17.58
2022-09-27T06:24:42.677Z,17.60
2022-09-27T06:26:14.327Z,17.64
2022-09-27T06:27:46.036Z,17.67
2022-09-27T06:29:17.688Z,17.73
2022-09-27T06:30:51.176Z,17.71
2022-09-27T06:32:23.706Z,17.70
2022-09-27T06:33:55.365Z,17.70
2022-09-27T06:35:27.469Z,17.70
2022-09-27T06:36:59.432Z,17.67
2022-09-27T06:38:31.142Z,17.67
2022-09-27T06:40:03.828Z,17.72
2022-09-27T06:41:36.209Z,17.74
2022-09-27T06:43:09.449Z,17.78
2022-09-27T06:44:48.152Z,17.80
2022-09-27T06:46:25.182Z,17.83
2022-09-27T06:48:01.776Z,17.85
2022-09-27T06:49:33.489Z,17.92
2022-09-27T06:51:05.489Z,17.92
2022-09-27T06:52:37.320Z,17.91
2022-09-27T06:54:09.161Z,17.89
2022-09-27T06:55:41.921Z,17.85
2022-09-27T06:57:34.020Z,17.84
2022-09-27T06:59:24.279Z,17.84
2022-09-27T07:00:55.928Z,17.85
2022-09-27T07:02:27.953Z,17.86
2022-09-27T07:03:59.569Z,17.87
2022-09-27T07:05:31.229Z,17.87
2022-09-27T07:07:03.230Z,17.89
2022-09-27T07:08:36.207Z,17.94
2022-09-27T07:10:09.988Z,17.96
2022-09-27T07:11:46.659Z,18.02
2022-09-27T07:13:22.723Z,18.00
2022-09-27T07:14:54.455Z,18.03
2022-09-27T07:16:26.055Z,18.02
2022-09-27T07:18:00.571Z,18.02
2022-09-27T07:19:32.219Z,17.98
2022-09-27T07:21:03.817Z,17.92
2022-09-27T07:22:45.270Z,17.79
2022-09-27T07:24:16.834Z,17.74
2022-09-27T07:25:49.824Z,17.71
2022-09-27T07:27:24.979Z,17.68
2022-09-27T07:28:57.199Z,17.63
2022-09-27T07:30:28.989Z,17.54
2022-09-27T07:32:00.693Z,17.42
2022-09-27T07:33:43.047Z,17.41
2022-09-27T07:35:17.991Z,17.35
2022-09-27T07:36:51.532Z,17.24
2022-09-27T07:38:23.281Z,17.25
2022-09-27T07:39:55.246Z,17.18
2022-09-27T07:41:26.815Z,17.15
2022-09-27T07:42:58.759Z,17.13
2022-09-27T07:44:30.276Z,17.13
2022-09-27T07:46:02.702Z,17.14
2022-09-27T07:47:35.083Z,17.14
2022-09-27T07:49:07.057Z,17.16
2022-09-27T07:50:38.671Z,17.22
2022-09-27T07:52:10.289Z,17.31
2022-09-27T07:53:41.894Z,17.43
2022-09-27T07:55:13.951Z,17.56
2022-09-27T07:56:45.728Z,17.61
2022-09-27T07:58:17.561Z,17.64
2022-09-27T07:59:49.544Z,17.69
2022-09-27T08:01:21.508Z,17.68
2022-09-27T08:02:53.079Z,17.72
2022-09-27T08:04:24.606Z,17.80
2022-09-27T08:05:56.228Z,17.88
2022-09-27T08:07:28.426Z,17.87
2022-09-27T08:09:00.445Z,17.83
2022-09-27T08:10:32.401Z,17.85
2022-09-27T08:12:04.869Z,17.80
2022-09-27T08:13:37.836Z,17.81
2022-09-27T08:15:09.721Z,17.89
2022-09-27T08:16:41.869Z,17.98
2022-09-27T08:18:13.595Z,18.02
2022-09-27T08:19:45.646Z,18.03
2022-09-27T08:21:17.796Z,18.03
2022-09-27T08:22:49.309Z,18.00
2022-09-27T08:24:21.304Z,18.03
2022-09-27T08:25:53.726Z,18.08
2022-09-27T08:27:25.312Z,18.16
2022-09-27T08:28:57.430Z,18.26
2022-09-27T08:30:29.597Z,18.30
2022-09-27T08:32:01.509Z,18.37
2022-09-27T08:33:35.757Z,18.42
2022-09-27T08:35:11.244Z,18.47
2022-09-27T08:36:46.028Z,18.52
2022-09-27T08:38:17.867Z,18.61
2022-09-27T08:39:49.520Z,18.67
2022-09-27T08:41:24.588Z,18.77
2022-09-27T08:43:02.568Z,18.84
2022-09-27T08:44:38.052Z,18.84
2022-09-27T08:46:28.370Z,18.88
2022-09-27T08:48:00.999Z,18.95
2022-09-27T08:49:41.561Z,19.08
2022-09-27T08:51:13.663Z,19.16
2022-09-27T08:53:03.788Z,19.17
2022-09-27T08:54:35.424Z,19.26
2022-09-27T08:56:08.045Z,19.33
2022-09-27T08:57:39.697Z,19.36
2022-09-27T08:59:14.899Z,19.41
2022-09-27T09:00:46.484Z,19.47
2022-09-27T09:02:19.301Z,19.52
2022-09-27T09:03:57.279Z,19.56
2022-09-27T09:05:32.481Z,19.66
2022-09-27T09:07:06.893Z,19.68
2022-09-27T09:08:43.634Z,19.70
2022-09-27T09:10:40.615Z,19.68
2022-09-27T09:12:43.964Z,19.63
2022-09-27T09:14:18.657Z,19.58
2022-09-27T09:15:55.536Z,19.58
2022-09-27T09:17:45.048Z,19.62
2022-09-27T09:19:16.684Z,19.64
2022-09-27T09:21:10.123Z,19.64
2022-09-27T09:22:41.592Z,19.58
2022-09-27T09:24:34.937Z,19.66
2022-09-27T09:26:06.442Z,19.61
2022-09-27T09:27:47.395Z,19.49
2022-09-27T09:29:18.890Z,19.45
2022-09-27T09:30:53.413Z,19.48
2022-09-27T09:32:25.486Z,19.46
2022-09-27T09:34:02.244Z,19.47
2022-09-27T09:35:34.159Z,19.51
2022-09-27T09:37:13.203Z,19.57
2022-09-27T09:38:45.589Z,19.71
2022-09-27T09:40:43.205Z,19.79
2022-09-27T09:42:16.046Z,19.90
2022-09-27T09:43:48.788Z,19.96
2022-09-27T09:45:20.587Z,20.02
2022-09-27T09:46:53.614Z,20.09
2022-09-27T09:48:44.970Z,20.17
2022-09-27T09:50:17.397Z,20.25
2022-09-27T09:51:50.816Z,20.29
2022-09-27T09:53:30.307Z,20.35
2022-09-27T09:55:13.970Z,20.35
2022-09-27T09:56:47.781Z,20.39
2022-09-27T09:58:37.716Z,20.38
2022-09-27T10:00:19.088Z,20.37
2022-09-27T10:01:50.924Z,20.37
2022-09-27T10:03:23.137Z,20.41
2022-09-27T10:04:54.827Z,20.44
2022-09-27T10:06:26.551Z,20.46
2022-09-27T10:07:59.497Z,20.47
2022-09-27T10:09:31.188Z,20.48
2022-09-27T10:11:02.912Z,20.51
2022-09-27T10:12:34.763Z,20.56
2022-09-27T10:14:09.290Z,20.56
2022-09-27T10:15:40.877Z,20.56
2022-09-27T10:17:14.776Z,20.57
2022-09-27T10:18:49.897Z,20.56
2022-09-27T10:20:24.676Z,20.54
2022-09-27T10:21:58.818Z,20.59
2022-09-27T10:23:31.546Z,20.62
2022-09-27T10:25:04.476Z,20.64
2022-09-27T10:26:36.737Z,20.61
2022-09-27T10:28:08.530Z,20.60
2022-09-27T10:29:40.629Z,20.62
2022-09-27T10:31:16.268Z,20.64
2022-09-27T10:32:48.156Z,20.68
2022-09-27T10:34:26.629Z,20.76
2022-09-27T10:36:00.770Z,20.80
2022-09-27T10:37:32.337Z,20.88
2022-09-27T10:39:05.017Z,20.96
2022-09-27T10:40:36.882Z,21.06
2022-09-27T10:42:20.349Z,21.15
2022-09-27T10:43:52.288Z,21.30
2022-09-27T10:45:29.881Z,21.44
2022-09-27T10:47:06.603Z,21.55
2022-09-27T10:48:41.468Z,21.62
2022-09-27T10:50:38.622Z,21.70
2022-09-27T10:52:14.048Z,21.88
2022-09-27T10:53:46.334Z,22.05
2022-09-27T10:55:29.359Z,22.23
2022-09-27T10:57:01.056Z,22.42
2022-09-27T10:58:36.481Z,22.62
2022-09-27T11:00:24.754Z,22.83
2022-09-27T11:01:56.570Z,23.10
2022-09-27T11:03:29.182Z,23.23
2022-09-27T11:05:04.028Z,23.25
2022-09-27T11:06:38.518Z,23.27
2022-09-27T11:08:23.290Z,23.37
2022-09-27T11:09:56.545Z,23.48
2022-09-27T11:11:28.761Z,23.52
2022-09-27T11:13:19.233Z,23.57
2022-09-27T11:14:55.498Z,23.69
2022-09-27T11:16:46.025Z,23.82
2022-09-27T11:18:23.881Z,23.87
2022-09-27T11:20:02.293Z,23.85
2022-09-27T11:21:52.619Z,23.97
2022-09-27T11:23:47.088Z,24.11
2022-09-27T11:25:40.045Z,24.11
2022-09-27T11:27:15.465Z,24.16
2022-09-27T11:28:57.970Z,24.32
2022-09-27T11:30:36.865Z,24.45
2022-09-27T11:32:23.892Z,24.42
2022-09-27T11:33:55.596Z,24.29
2022-09-27T11:35:33.421Z,24.26
2022-09-27T11:37:07.999Z,24.15
2022-09-27T11:38:52.658Z,24.11
2022-09-27T11:40:27.998Z,24.03
2022-09-27T11:42:04.441Z,23.88
2022-09-27T11:43:39.098Z,23.69
2022-09-27T11:45:45.201Z,23.49
2022-09-27T11:47:22.448Z,23.40
2022-09-27T11:49:06.715Z,23.51
2022-09-27T11:50:57.003Z,23.69
2022-09-27T11:52:34.744Z,23.85
2022-09-27T11:54:25.444Z,23.78
2022-09-27T11:56:17.296Z,23.67
2022-09-27T11:57:49.758Z,23.42
2022-09-27T11:59:40.426Z,23.29
2022-09-27T12:01:23.028Z,23.14
2022-09-27T12:03:11.624Z,23.09
2022-09-27T12:04:49.825Z,23.08
2022-09-27T12:06:35.376Z,23.15
2022-09-27T12:08:26.066Z,23.19
2022-09-27T12:10:00.089Z,23.27
2022-09-27T12:11:31.992Z,23.26
2022-09-27T12:13:04.506Z,23.18
2022-09-27T12:14:36.253Z,23.15
2022-09-27T12:16:08.025Z,23.16
2022-09-27T12:17:44.008Z,23.18
2022-09-27T12:19:19.659Z,23.11
2022-09-27T12:20:51.915Z,23.14
2022-09-27T12:22:56.920Z,23.28
2022-09-27T12:24:25.500Z,23.35
2022-09-27T12:25:59.440Z,23.29
2022-09-27T12:27:35.114Z,23.19
2022-09-27T12:29:11.135Z,23.09
2022-09-27T12:30:43.397Z,23.12
2022-09-27T12:32:17.444Z,23.30
2022-09-27T12:33:58.231Z,23.48
2022-09-27T12:35:31.320Z,23.66
2022-09-27T12:37:11.822Z,23.75
2022-09-27T12:38:43.526Z,23.80
2022-09-27T12:40:27.418Z,23.86
2022-09-27T12:42:02.461Z,23.98
2022-09-27T12:43:35.512Z,24.08
2022-09-27T12:45:11.241Z,24.16
2022-09-27T12:47:02.131Z,24.18
2022-09-27T12:48:39.457Z,24.13
2022-09-27T12:50:46.648Z,24.04
2022-09-27T12:52:23.602Z,24.03
2022-09-27T12:53:59.543Z,24.09
2022-09-27T12:55:45.689Z,24.11
2022-09-27T12:57:24.329Z,24.08
2022-09-27T12:59:02.138Z,24.07
2022-09-27T13:00:36.824Z,24.04
2022-09-27T13:02:08.926Z,24.00
2022-09-27T13:03:47.458Z,23.89
2022-09-27T13:05:19.017Z,23.87
2022-09-27T13:07:05.213Z,24.01
2022-09-27T13:08:55.404Z,24.10
2022-09-27T13:10:27.236Z,24.20
2022-09-27T13:12:01.659Z,24.16
2022-09-27T13:13:36.539Z,24.15
2022-09-27T13:15:15.629Z,24.18
2022-09-27T13:16:47.413Z,24.20
2022-09-27T13:18:38.964Z,24.30
2022-09-27T13:20:44.576Z,24.45
2022-09-27T13:22:28.244Z,24.53
2022-09-27T13:24:00.288Z,24.53
2022-09-27T13:25:55.916Z,24.55
2022-09-27T13:27:28.494Z,24.45
2022-09-27T13:29:02.209Z,24.37
2022-09-27T13:30:37.008Z,24.34
2022-09-27T13:32:14.928Z,24.32
2022-09-27T13:33:47.302Z,24.33
2022-09-27T13:35:20.188Z,24.33
2022-09-27T13:36:52.324Z,24.30
2022-09-27T13:38:26.372Z,24.32
2022-09-27T13:40:30.503Z,24.27
2022-09-27T13:42:22.256Z,24.32
2022-09-27T13:43:58.287Z,24.50
2022-09-27T13:45:32.535Z,24.58
2022-09-27T13:47:16.063Z,24.51
2022-09-27T13:48:55.397Z,24.45
2022-09-27T13:50:29.330Z,24.33
2022-09-27T13:52:02.912Z,24.32
2022-09-27T13:53:35.978Z,24.32
2022-09-27T13:55:28.065Z,24.23
2022-09-27T13:56:59.931Z,24.12
2022-09-27T13:58:40.880Z,24.07
2022-09-27T14:00:20.089Z,24.00
2022-09-27T14:01:52.629Z,23.95
2022-09-27T14:03:26.617Z,23.95
2022-09-27T14:04:58.524Z,23.88
2022-09-27T14:06:32.311Z,23.89
2022-09-27T14:08:04.449Z,23.87
2022-09-27T14:09:38.499Z,23.86
2022-09-27T14:11:39.110Z,23.86
2022-09-27T14:13:10.748Z,23.93
2022-09-27T14:14:43.039Z,23.87
2022-09-27T14:16:15.105Z,23.86
2022-09-27T14:17:46.669Z,23.79
2022-09-27T14:19:25.726Z,23.79
2022-09-27T14:21:12.273Z,23.84
2022-09-27T14:22:44.380Z,23.76
2022-09-27T14:24:36.572Z,23.64
2022-09-27T14:26:19.545Z,23.46
2022-09-27T14:27:51.048Z,23.27
2022-09-27T14:29:22.619Z,23.25
2022-09-27T14:31:06.464Z,23.28
2022-09-27T14:32:47.042Z,23.26
2022-09-27T14:34:18.550Z,23.21
2022-09-27T14:36:08.975Z,23.18
2022-09-27T14:37:40.647Z,23.12
2022-09-27T14:39:13.641Z,23.05
2022-09-27T14:40:55.034Z,23.03
2022-09-27T14:42:28.347Z,23.01
2022-09-27T14:44:00.077Z,22.99
2022-09-27T14:45:37.371Z,22.89
2022-09-27T14:47:09.456Z,22.76
2022-09-27T14:48:42.256Z,22.65
2022-09-27T14:50:18.175Z,22.58
2022-09-27T14:51:56.290Z,22.56
2022-09-27T14:53:28.885Z,22.56
2022-09-27T14:55:08.444Z,22.54
2022-09-27T14:56:40.141Z,22.51
2022-09-27T14:58:35.773Z,22.50
2022-09-27T15:00:17.717Z,22.43
2022-09-27T15:01:50.604Z,22.37
2022-09-27T15:03:30.596Z,22.29
2022-09-27T15:05:05.700Z,22.19
2022-09-27T15:06:37.423Z,22.14
2022-09-27T15:08:10.675Z,22.11
2022-09-27T15:09:42.774Z,22.08
2022-09-27T15:11:14.537Z,22.01
2022-09-27T15:12:48.242Z,22.00
2022-09-27T15:14:23.692Z,22.00
2022-09-27T15:15:56.385Z,22.00
2022-09-27T15:17:29.073Z,21.95
2022-09-27T15:19:02.546Z,21.91
2022-09-27T15:20:35.457Z,21.88
2022-09-27T15:22:22.963Z,21.81
2022-09-27T15:23:56.163Z,21.71
2022-09-27T15:25:39.914Z,21.70
2022-09-27T15:27:18.330Z,21.70
2022-09-27T15:28:50.816Z,21.71
2022-09-27T15:30:29.672Z,21.71
2022-09-27T15:32:05.463Z,21.70
2022-09-27T15:33:37.891Z,21.66
2022-09-27T15:35:10.126Z,21.65
2022-09-27T15:36:42.458Z,21.65
2022-09-27T15:38:22.666Z,21.70
2022-09-27T15:39:54.637Z,21.77
2022-09-27T15:41:26.575Z,21.77
2022-09-27T15:42:59.887Z,21.77
2022-09-27T15:44:51.340Z,21.76
2022-09-27T15:46:37.853Z,21.74
2022-09-27T15:48:16.937Z,21.69
2022-09-27T15:49:50.831Z,21.64
2022-09-27T15:51:52.050Z,21.61
2022-09-27T15:53:35.757Z,21.55
2022-09-27T15:55:09.417Z,21.50
2022-09-27T15:56:41.054Z,21.39
2022-09-27T15:58:17.128Z,21.26
2022-09-27T15:59:49.497Z,21.18
2022-09-27T16:01:21.664Z,21.10
2022-09-27T16:02:54.460Z,20.97
2022-09-27T16:04:26.608Z,20.86
2022-09-27T16:05:58.735Z,20.89
2022-09-27T16:07:32.603Z,20.90
2022-09-27T16:09:07.055Z,20.76
2022-09-27T16:10:51.645Z,20.54
2022-09-27T16:12:26.292Z,20.36
2022-09-27T16:13:58.117Z,20.18
2022-09-27T16:15:29.841Z,20.07
2022-09-27T16:17:01.651Z,19.99
2022-09-27T16:18:33.777Z,19.94
2022-09-27T16:20:06.002Z,19.97
2022-09-27T16:21:38.063Z,20.03
2022-09-27T16:23:09.885Z,20.09
2022-09-27T16:24:42.561Z,20.15
2022-09-27T16:26:14.508Z,20.13
2022-09-27T16:27:47.048Z,20.09
2022-09-27T16:29:19.361Z,20.02
2022-09-27T16:30:51.071Z,20.01
2022-09-27T16:32:24.085Z,20.06
2022-09-27T16:33:55.930Z,20.08
2022-09-27T16:35:29.066Z,20.11
2022-09-27T16:37:04.827Z,20.20
2022-09-27T16:38:37.299Z,20.23
2022-09-27T16:40:09.638Z,20.23
2022-09-27T16:41:44.275Z,20.19
2022-09-27T16:43:15.888Z,20.13
2022-09-27T16:44:49.549Z,20.10
2022-09-27T16:46:22.245Z,20.07
2022-09-27T16:47:56.730Z,20.00
2022-09-27T16:49:47.371Z,19.90
2022-09-27T16:51:39.122Z,19.86
2022-09-27T16:53:10.990Z,19.81
2022-09-27T16:54:42.649Z,19.83
2022-09-27T16:56:14.282Z,19.80
2022-09-27T16:57:46.546Z,19.81
2022-09-27T16:59:23.631Z,19.81
2022-09-27T17:01:01.418Z,19.86
2022-09-27T17:02:34.327Z,19.88
2022-09-27T17:04:06.356Z,19.93
2022-09-27T17:05:38.466Z,19.99
2022-09-27T17:07:10.147Z,19.97
2022-09-27T17:08:42.343Z,20.03
2022-09-27T17:10:15.484Z,20.05
2022-09-27T17:11:47.289Z,20.09
2022-09-27T17:13:18.921Z,20.08
2022-09-27T17:14:50.867Z,20.05
2022-09-27T17:16:23.120Z,20.05
2022-09-27T17:17:55.224Z,20.02
2022-09-27T17:19:27.524Z,19.97
2022-09-27T17:21:03.812Z,19.90
2022-09-27T17:22:38.097Z,19.84
2022-09-27T17:24:10.397Z,19.77
2022-09-27T17:25:42.091Z,19.77
2022-09-27T17:27:13.797Z,19.73
2022-09-27T17:28:45.955Z,19.71
2022-09-27T17:30:17.824Z,19.68
2022-09-27T17:31:49.406Z,19.66
2022-09-27T17:33:21.269Z,19.63
2022-09-27T17:34:52.997Z,19.59
2022-09-27T17:36:37.566Z,19.55
2022-09-27T17:38:09.172Z,19.49
2022-09-27T17:39:42.282Z,19.45
2022-09-27T17:41:14.373Z,19.41
2022-09-27T17:42:54.816Z,19.35
2022-09-27T17:44:27.350Z,19.24
2022-09-27T17:46:03.587Z,19.19
2022-09-27T17:47:53.854Z,19.15
2022-09-27T17:49:44.316Z,19.10
2022-09-27T17:51:15.921Z,19.03
2022-09-27T17:52:47.494Z,19.03
2022-09-27T17:54:19.880Z,19.03
2022-09-27T17:56:00.512Z,18.99
2022-09-27T17:57:32.166Z,18.96
2022-09-27T17:59:03.905Z,18.92
2022-09-27T18:00:35.628Z,18.90
2022-09-27T18:02:10.835Z,18.86
2022-09-27T18:03:48.407Z,18.86
2022-09-27T18:05:21.568Z,18.84
2022-09-27T18:06:53.067Z,18.84
2022-09-27T18:08:33.425Z,18.83
2022-09-27T18:10:05.330Z,18.81
2022-09-27T18:11:37.629Z,18.78
2022-09-27T18:13:09.278Z,18.76
2022-09-27T18:14:41.026Z,18.74
2022-09-27T18:16:14.410Z,18.68
2022-09-27T18:17:46.228Z,18.67
2022-09-27T18:19:18.220Z,18.61
2022-09-27T18:20:49.920Z,18.52
2022-09-27T18:22:21.657Z,18.46
2022-09-27T18:23:53.901Z,18.40
2022-09-27T18:25:26.678Z,18.35
2022-09-27T18:27:00.018Z,18.32
2022-09-27T18:28:34.396Z,18.27
2022-09-27T18:30:06.382Z,18.20
2022-09-27T18:31:40.258Z,18.17
2022-09-27T18:33:13.030Z,18.17
2022-09-27T18:34:44.961Z,18.17
2022-09-27T18:36:17.610Z,18.12
2022-09-27T18:37:49.682Z,18.06
2022-09-27T18:39:21.263Z,18.02
2022-09-27T18:40:59.770Z,17.99
2022-09-27T18:42:33.482Z,17.98
2022-09-27T18:44:05.467Z,17.95
2022-09-27T18:45:38.259Z,17.93
2022-09-27T18:47:09.991Z,17.92
2022-09-27T18:48:41.759Z,17.92
2022-09-27T18:50:13.593Z,17.95
2022-09-27T18:51:47.332Z,17.99
2022-09-27T18:53:21.805Z,17.98
2022-09-27T18:54:53.444Z,17.91
2022-09-27T18:56:26.138Z,17.87
2022-09-27T18:57:57.754Z,17.83
2022-09-27T18:59:30.580Z,17.77
2022-09-27T19:01:02.738Z,17.73
2022-09-27T19:02:34.519Z,17.70
2022-09-27T19:04:09.802Z,17.66
2022-09-27T19:05:41.555Z,17.62
2022-09-27T19:07:13.491Z,17.53
2022-09-27T19:08:45.175Z,17.45
2022-09-27T19:10:16.804Z,17.40
2022-09-27T19:11:48.561Z,17.38
2022-09-27T19:13:21.495Z,17.34
2022-09-27T19:14:55.657Z,17.27
2022-09-27T19:16:27.834Z,17.19
2022-09-27T19:17:59.719Z,17.13
2022-09-27T19:19:31.703Z,17.06
2022-09-27T19:21:08.397Z,17.00
2022-09-27T19:22:41.938Z,16.94
2022-09-27T19:24:14.162Z,16.89
2022-09-27T19:25:46.115Z,16.85
2022-09-27T19:27:17.656Z,16.84
2022-09-27T19:28:49.528Z,16.83
2022-09-27T19:30:21.169Z,16.82
2022-09-27T19:31:52.819Z,16.79
2022-09-27T19:33:24.467Z,16.77
2022-09-27T19:34:56.079Z,16.76
2022-09-27T19:36:27.890Z,16.76
2022-09-27T19:37:59.531Z,16.79
2022-09-27T19:39:31.250Z,16.81
2022-09-27T19:41:03.757Z,16.85
2022-09-27T19:42:35.435Z,16.89
2022-09-27T19:44:09.956Z,16.95
2022-09-27T19:45:41.719Z,16.95
2022-09-27T19:47:13.341Z,16.92
2022-09-27T19:48:45.844Z,16.86
2022-09-27T19:50:17.554Z,16.80
2022-09-27T19:51:49.342Z,16.74
2022-09-27T19:53:21.050Z,16.70
2022-09-27T19:54:52.908Z,16.65
2022-09-27T19:56:24.574Z,16.59
2022-09-27T19:57:56.524Z,16.56
2022-09-27T19:59:28.302Z,16.57
2022-09-27T20:01:02.646Z,16.62
2022-09-27T20:02:34.540Z,16.68
2022-09-27T20:04:06.286Z,16.70
2022-09-27T20:05:37.901Z,16.73
2022-09-27T20:07:09.509Z,16.75
2022-09-27T20:08:41.458Z,16.75
2022-09-27T20:10:13.712Z,16.71
2022-09-27T20:11:46.346Z,16.64
2022-09-27T20:13:17.897Z,16.56
2022-09-27T20:14:49.964Z,16.49
2022-09-27T20:16:22.428Z,16.42
2022-09-27T20:17:54.135Z,16.35
2022-09-27T20:19:25.768Z,16.33
2022-09-27T20:21:01.315Z,16.33
2022-09-27T20:22:33.049Z,16.34
2022-09-27T20:24:04.752Z,16.33
2022-09-27T20:25:39.961Z,16.30
2022-09-27T20:27:14.491Z,16.32
2022-09-27T20:28:49.837Z,16.38
2022-09-27T20:30:21.811Z,16.46
2022-09-27T20:32:22.518Z,16.50
2022-09-27T20:33:46.866Z,16.51
2022-09-27T20:35:18.711Z,16.52
2022-09-27T20:36:53.128Z,16.49
2022-09-27T20:38:24.703Z,16.45